Time;durP1;ratioP1;P1;durP2;ratioP2;P2;SDS_P1;SDS_P2;PMS_P1;PMS_P2;Temp;Humidity;BMP_temperature;BMP_pressure;BME280_temperature;BME280_humidity;BME280_pressure;Samples;Min_cycle;Max_cycle;Signal;HPM_P1;HPM_P2
2022/04/17 00:01:48;;;;;;;3.92;2.58;;;6.40;78.90;;;;;;4984876;28;20030;-74
2022/04/17 00:04:15;;;;;;;4.47;2.70;;;6.40;79.30;;;;;;4978930;28;20026;-73
2022/04/17 00:06:41;;;;;;;4.68;2.85;;;6.30;80.00;;;;;;4985233;28;20500;-75
2022/04/17 00:09:07;;;;;;;3.67;2.60;;;6.30;79.40;;;;;;4992208;28;20616;-73
2022/04/17 00:11:35;;;;;;;6.17;2.93;;;6.30;79.70;;;;;;4972061;28;20036;-73
2022/04/17 00:14:10;;;;;;;5.45;2.75;;;6.20;79.70;;;;;;4994639;28;20029;-74
2022/04/17 00:16:40;;;;;;;4.72;3.25;;;6.20;79.80;;;;;;4971802;28;20030;-73
2022/04/17 00:19:07;;;;;;;3.80;2.80;;;6.20;79.90;;;;;;4977331;28;20064;-73
2022/04/17 00:21:33;;;;;;;4.80;2.85;;;6.20;79.90;;;;;;4974921;28;20463;-72
2022/04/17 00:24:01;;;;;;;3.83;2.90;;;6.20;79.90;;;;;;4983217;28;20026;-74
2022/04/17 00:26:30;;;;;;;5.22;2.83;;;6.20;80.00;;;;;;4972738;28;20373;-73
2022/04/17 00:28:57;;;;;;;5.70;2.47;;;6.10;80.20;;;;;;4996755;28;20017;-73
2022/04/17 00:31:23;;;;;;;3.10;2.80;;;6.10;80.30;;;;;;4995504;28;20067;-73
2022/04/17 00:33:49;;;;;;;3.30;2.57;;;6.10;80.60;;;;;;4999434;28;20048;-78
2022/04/17 00:36:15;;;;;;;4.03;2.87;;;6.00;80.60;;;;;;4988953;28;20034;-75
2022/04/17 00:38:42;;;;;;;4.15;2.70;;;6.00;80.90;;;;;;4995949;28;20113;-74
2022/04/17 00:41:11;;;;;;;2.67;2.45;;;6.00;80.70;;;;;;4982572;28;20467;-75
2022/04/17 00:43:48;;;;;;;2.78;2.58;;;5.90;81.10;;;;;;4996235;28;20041;-73
2022/04/17 00:46:14;;;;;;;4.50;2.70;;;5.90;81.20;;;;;;4998695;28;20084;-73
2022/04/17 00:48:40;;;;;;;4.82;3.08;;;5.90;81.40;;;;;;4989694;28;20018;-76
2022/04/17 00:51:06;;;;;;;5.27;2.47;;;5.80;81.50;;;;;;4976134;28;20598;-73
2022/04/17 00:53:35;;;;;;;4.10;2.97;;;5.80;81.70;;;;;;4992967;28;20475;-73
2022/04/17 00:56:03;;;;;;;3.85;2.50;;;5.80;81.70;;;;;;4993646;28;20541;-73
2022/04/17 00:58:32;;;;;;;3.45;2.90;;;5.80;81.80;;;;;;4992666;28;20032;-73
2022/04/17 01:00:58;;;;;;;4.15;2.35;;;5.80;81.70;;;;;;4996945;28;20032;-76
2022/04/17 01:03:24;;;;;;;4.95;2.55;;;5.80;81.70;;;;;;4989879;28;20026;-77
2022/04/17 01:05:49;;;;;;;3.57;3.07;;;5.70;82.00;;;;;;4967094;28;20045;-76
2022/04/17 01:08:17;;;;;;;4.67;3.00;;;5.70;81.90;;;;;;4992218;28;20046;-81
2022/04/17 01:10:44;;;;;;;3.60;2.60;;;5.70;82.40;;;;;;4990515;28;20032;-72
2022/04/17 01:13:12;;;;;;;3.45;2.63;;;5.60;82.50;;;;;;4977507;28;20022;-77
2022/04/17 01:15:40;;;;;;;4.05;3.15;;;5.60;82.60;;;;;;4969676;28;20408;-80
2022/04/17 01:18:10;;;;;;;2.85;2.55;;;5.60;82.80;;;;;;4987596;28;20022;-80
2022/04/17 01:20:38;;;;;;;4.93;3.20;;;5.60;82.80;;;;;;4984850;28;20018;-76
2022/04/17 01:28:33;;;;;;;4.90;3.03;;;5.50;83.10;;;;;;4984836;28;20064;-74
2022/04/17 01:31:03;;;;;;;4.60;2.70;;;5.50;83.00;;;;;;4977800;28;20046;-80
2022/04/17 01:33:32;;;;;;;4.15;3.00;;;5.50;83.10;;;;;;4974622;28;20488;-76
2022/04/17 01:36:02;;;;;;;5.18;3.00;;;5.50;84.00;;;;;;4994136;28;20080;-74
2022/04/17 01:38:28;;;;;;;4.10;2.70;;;5.50;83.70;;;;;;4989686;28;20022;-74
2022/04/17 01:40:55;;;;;;;3.73;2.80;;;5.40;83.70;;;;;;4991162;28;20021;-74
2022/04/17 01:43:21;;;;;;;3.63;2.45;;;5.40;83.70;;;;;;4995478;28;20026;-75
2022/04/17 01:45:50;;;;;;;5.67;2.97;;;5.40;83.90;;;;;;4989994;28;20036;-76
2022/04/17 01:48:16;;;;;;;3.63;2.65;;;5.40;84.00;;;;;;4995010;28;20046;-74
2022/04/17 01:50:44;;;;;;;3.58;2.78;;;5.40;84.20;;;;;;4971976;28;20022;-74
2022/04/17 01:53:11;;;;;;;3.63;2.72;;;5.40;84.20;;;;;;4996346;28;20383;-73
2022/04/17 01:55:38;;;;;;;5.40;2.72;;;5.40;84.10;;;;;;4994811;28;20092;-74
2022/04/17 01:58:04;;;;;;;3.55;2.58;;;5.40;84.20;;;;;;4995565;28;20026;-75
2022/04/17 02:00:30;;;;;;;4.70;2.80;;;5.40;84.20;;;;;;4974186;28;20109;-74
2022/04/17 02:02:57;;;;;;;5.73;2.77;;;5.40;84.40;;;;;;4995146;28;20109;-74
2022/04/17 02:05:25;;;;;;;4.85;2.85;;;5.30;85.20;;;;;;4992134;28;20030;-73
2022/04/17 02:07:51;;;;;;;5.97;3.20;;;5.30;84.70;;;;;;4974195;28;20060;-79
2022/04/17 02:10:19;;;;;;;3.87;2.77;;;5.30;84.80;;;;;;4990737;28;20053;-74
2022/04/17 02:12:47;;;;;;;4.05;2.60;;;5.30;84.80;;;;;;4993720;28;20072;-76
2022/04/17 02:15:16;;;;;;;4.57;2.78;;;5.30;85.00;;;;;;4994646;28;20029;-74
2022/04/17 02:17:47;;;;;;;3.65;2.70;;;5.30;85.20;;;;;;4976163;28;20026;-76
2022/04/17 02:20:14;;;;;;;3.80;2.80;;;5.30;85.20;;;;;;4975089;28;20018;-73
2022/04/17 02:22:39;;;;;;;;;;;5.30;85.20;;;;;;4976811;28;20033;-79
2022/04/17 02:25:05;;;;;;;6.47;3.25;;;5.30;85.30;;;;;;4992321;28;19905;-74
2022/04/17 02:27:34;;;;;;;5.87;2.83;;;5.30;85.60;;;;;;4974380;28;20428;-74
2022/04/17 02:30:06;;;;;;;4.18;3.10;;;5.20;85.70;;;;;;4984939;28;20487;-77
2022/04/17 02:32:34;;;;;;;4.35;3.35;;;5.20;85.80;;;;;;4977359;28;20056;-73
2022/04/17 02:35:03;;;;;;;5.35;3.20;;;5.10;86.00;;;;;;4995428;28;20024;-77
2022/04/17 02:37:36;;;;;;;4.85;2.92;;;5.10;86.20;;;;;;4989188;28;20014;-74
2022/04/17 02:40:01;;;;;;;5.50;3.42;;;5.10;86.20;;;;;;4994547;28;20033;-73
2022/04/17 02:42:27;;;;;;;7.37;4.40;;;5.10;86.50;;;;;;4990462;28;20022;-75
2022/04/17 02:44:54;;;;;;;4.20;2.90;;;5.10;86.70;;;;;;4976740;28;20601;-73
2022/04/17 02:50:07;;;;;;;4.72;3.33;;;5.10;86.80;;;;;;4996889;28;20037;-72
2022/04/17 02:52:37;;;;;;;4.50;2.58;;;5.00;87.00;;;;;;4976986;28;20080;-74
2022/04/17 02:55:10;;;;;;;4.20;3.15;;;5.00;87.10;;;;;;4995164;28;20026;-73
2022/04/17 02:57:38;;;;;;;6.55;2.63;;;5.00;87.30;;;;;;4991839;28;20022;-73
2022/04/17 03:00:06;;;;;;;5.70;3.17;;;4.90;87.70;;;;;;4996918;28;20434;-72
2022/04/17 03:05:37;;;;;;;4.63;3.10;;;4.90;88.20;;;;;;4991450;28;20033;-74
2022/04/17 03:08:12;;;;;;;5.22;3.13;;;4.80;88.40;;;;;;4994668;28;20030;-73
2022/04/17 03:10:40;;;;;;;3.65;2.78;;;4.80;89.00;;;;;;4993255;28;20022;-73
2022/04/17 03:13:08;;;;;;;4.63;2.97;;;4.80;88.60;;;;;;4979775;28;20029;-74
2022/04/17 03:15:40;;;;;;;4.50;2.97;;;4.80;88.60;;;;;;4990466;28;20374;-73
2022/04/17 03:18:10;;;;;;;4.03;2.90;;;4.80;88.80;;;;;;4977733;28;20430;-74
2022/04/17 03:20:38;;;;;;;3.28;2.72;;;4.80;88.90;;;;;;4989476;28;20022;-73
2022/04/17 03:23:05;;;;;;;5.22;2.85;;;4.70;89.30;;;;;;4977356;28;20568;-74
2022/04/17 03:25:31;;;;;;;6.78;2.90;;;4.70;89.50;;;;;;4989733;28;20022;-73
2022/04/17 03:28:00;;;;;;;3.20;2.70;;;4.70;89.70;;;;;;4993268;28;20073;-73
2022/04/17 03:30:29;;;;;;;5.00;3.13;;;4.70;90.00;;;;;;4996769;28;20113;-72
2022/04/17 03:32:56;;;;;;;3.58;2.70;;;4.70;90.00;;;;;;4953685;28;20720;-73
2022/04/17 03:35:23;;;;;;;6.90;3.20;;;4.70;90.00;;;;;;4975820;28;20595;-73
2022/04/17 03:37:49;;;;;;;5.05;2.95;;;4.70;90.00;;;;;;4988875;28;20022;-73
2022/04/17 03:40:16;;;;;;;3.77;2.63;;;4.70;90.10;;;;;;4983336;28;20026;-74
2022/04/17 03:42:44;;;;;;;3.38;2.47;;;4.70;90.20;;;;;;4971649;28;20471;-77
2022/04/17 03:45:12;;;;;;;4.80;3.10;;;4.70;90.40;;;;;;4989754;28;20018;-83
2022/04/17 03:47:38;;;;;;;4.07;3.25;;;4.60;90.50;;;;;;4990159;28;20097;-84
2022/04/17 03:50:05;;;;;;;;;;;4.60;90.50;;;;;;4990573;28;20085;-75
2022/04/17 03:52:50;;;;;;;5.68;3.58;;;4.60;90.70;;;;;;4993975;28;20019;-81
2022/04/17 03:55:19;;;;;;;7.32;3.10;;;4.60;90.80;;;;;;4967150;28;20517;-80
2022/04/17 03:57:47;;;;;;;4.97;3.33;;;4.50;90.90;;;;;;4993306;28;20053;-80
2022/04/17 04:00:14;;;;;;;3.42;2.95;;;4.50;91.00;;;;;;4990330;28;20033;-82
2022/04/17 04:02:43;;;;;;;7.07;3.17;;;4.50;91.10;;;;;;4978691;28;20105;-73
2022/04/17 04:05:11;;;;;;;5.25;3.17;;;4.50;91.30;;;;;;4988469;28;20030;-83
2022/04/17 04:07:39;;;;;;;5.25;3.22;;;4.50;91.40;;;;;;4993308;28;20491;-75
2022/04/17 04:10:06;;;;;;;4.13;3.08;;;4.50;91.50;;;;;;4985265;28;20033;-73
2022/04/17 04:12:35;;;;;;;5.35;3.45;;;4.50;91.60;;;;;;4998073;28;20042;-72
2022/04/17 04:15:01;;;;;;;4.70;3.00;;;4.50;91.70;;;;;;4991007;28;20034;-74
2022/04/17 04:17:27;;;;;;;5.47;3.23;;;4.50;91.60;;;;;;4999476;28;20348;-78
2022/04/17 04:19:53;;;;;;;4.00;3.00;;;4.50;91.70;;;;;;4995881;28;21797;-74
2022/04/17 04:22:21;;;;;;;4.20;3.30;;;4.40;91.70;;;;;;4999931;28;20108;-73
2022/04/17 04:24:48;;;;;;;5.05;3.03;;;4.40;91.70;;;;;;4991649;28;20387;-78
2022/04/17 04:30:00;;;;;;;5.05;3.05;;;4.50;91.70;;;;;;4990327;28;20092;-78
2022/04/17 04:32:25;;;;;;;;;;;4.60;91.70;;;;;;4983056;28;20151;-75
2022/04/17 04:34:51;;;;;;;5.50;2.78;;;4.60;91.50;;;;;;4976084;28;20683;-78
2022/04/17 04:37:17;;;;;;;5.03;2.83;;;4.70;91.60;;;;;;4978135;28;20046;-76
2022/04/17 04:39:42;;;;;;;6.07;3.67;;;4.80;91.40;;;;;;4972855;28;20026;-73
2022/04/17 04:42:11;;;;;;;5.83;3.00;;;5.00;91.40;;;;;;5000356;28;20077;-73
2022/04/17 04:44:38;;;;;;;3.47;2.78;;;6.30;89.50;;;;;;4993694;28;20022;-73
2022/04/17 04:47:07;;;;;;;3.67;2.80;;;8.30;82.90;;;;;;4993879;28;20050;-73
2022/04/17 04:49:34;;;;;;;3.38;2.60;;;10.00;76.60;;;;;;5000789;28;20032;-72
2022/04/17 04:52:03;;;;;;;;;;;11.20;71.10;;;;;;4975480;28;20060;-72
2022/04/17 04:54:30;;;;;;;4.90;2.92;;;11.60;69.10;;;;;;4992846;28;20008;-72
2022/04/17 04:56:57;;;;;;;3.75;2.70;;;12.80;66.00;;;;;;4988200;28;20080;-73
2022/04/17 04:59:23;;;;;;;5.50;2.90;;;14.00;62.00;;;;;;4996008;28;20775;-73
2022/04/17 05:01:51;;;;;;;3.28;2.60;;;14.80;58.50;;;;;;4995291;28;20037;-72
2022/04/17 05:04:20;;;;;;;5.72;2.83;;;15.70;55.70;;;;;;4995756;28;20641;-73
2022/04/17 05:06:45;;;;;;;4.70;2.60;;;16.30;53.50;;;;;;4969138;28;20026;-73
2022/04/17 05:09:11;;;;;;;4.50;2.70;;;16.90;51.50;;;;;;4993296;28;20032;-73
2022/04/17 05:11:38;;;;;;;5.07;3.00;;;17.40;49.40;;;;;;4993367;28;20018;-73
2022/04/17 05:14:08;;;;;;;4.95;2.88;;;17.40;48.40;;;;;;4995829;28;20014;-73
2022/04/17 05:16:34;;;;;;;3.95;2.45;;;17.10;48.60;;;;;;4985797;28;20105;-72
2022/04/17 05:19:20;;;;;;;2.70;2.50;;;15.90;50.20;;;;;;4973923;28;20551;-73
2022/04/17 05:21:48;;;;;;;4.33;2.70;;;14.50;51.50;;;;;;4993087;28;20108;-73
2022/04/17 05:24:16;;;;;;;3.25;2.78;;;13.00;54.30;;;;;;4981536;28;20467;-73
2022/04/17 05:26:42;;;;;;;4.30;3.08;;;11.80;56.90;;;;;;4991525;28;20029;-73
2022/04/17 05:29:08;;;;;;;3.22;2.50;;;11.10;59.50;;;;;;4995794;28;20028;-72
2022/04/17 05:31:34;;;;;;;4.77;3.03;;;10.70;61.20;;;;;;4977402;28;20029;-73
2022/04/17 05:33:59;;;;;;;5.57;2.97;;;10.40;62.20;;;;;;4971147;28;20081;-73
2022/04/17 05:36:26;;;;;;;3.67;2.83;;;10.20;63.00;;;;;;4989133;28;20030;-73
2022/04/17 05:38:56;;;;;;;;;;;10.10;63.70;;;;;;4972667;28;20026;-74
2022/04/17 05:41:24;;;;;;;7.63;3.40;;;10.60;63.60;;;;;;4992590;28;19906;-74
2022/04/17 05:43:51;;;;;;;4.25;2.83;;;12.00;60.90;;;;;;4974582;28;20138;-73
2022/04/17 05:46:19;;;;;;;4.55;2.65;;;14.00;56.60;;;;;;4968179;28;20392;-73
2022/04/17 05:48:46;;;;;;;4.55;2.70;;;15.70;53.20;;;;;;4985209;28;20026;-74
2022/04/17 05:51:14;;;;;;;4.82;2.95;;;17.00;50.00;;;;;;4972880;28;20049;-73
2022/04/17 05:53:41;;;;;;;5.45;2.65;;;18.10;47.80;;;;;;4992359;28;20030;-74
2022/04/17 05:56:08;;;;;;;5.07;2.90;;;19.20;45.60;;;;;;4968455;28;20376;-73
2022/04/17 05:58:35;;;;;;;3.25;2.70;;;19.90;43.30;;;;;;4992243;28;20037;-73
2022/04/17 06:01:02;;;;;;;4.28;2.83;;;20.40;42.10;;;;;;4976997;28;20021;-73
2022/04/17 06:03:29;;;;;;;4.90;2.83;;;20.60;41.30;;;;;;4988069;28;20014;-73
2022/04/17 06:05:54;;;;;;;;;;;21.00;40.60;;;;;;4993548;28;20056;-74
2022/04/17 06:08:20;;;;;;;4.25;2.70;;;21.20;39.90;;;;;;4991048;28;19921;-73
2022/04/17 06:10:46;;;;;;;4.68;3.08;;;21.40;39.90;;;;;;4988217;28;20068;-74
2022/04/17 06:13:13;;;;;;;4.45;2.92;;;22.10;38.70;;;;;;4995791;28;20022;-73
2022/04/17 06:15:40;;;;;;;4.60;2.95;;;22.50;37.90;;;;;;4994411;28;20600;-74
2022/04/17 06:18:07;;;;;;;3.17;2.83;;;22.70;37.30;;;;;;4986201;28;20014;-74
2022/04/17 06:20:33;;;;;;;4.32;2.83;;;22.60;36.70;;;;;;4992326;28;20041;-73
2022/04/17 06:22:58;;;;;;;3.42;3.00;;;22.40;36.80;;;;;;4992340;28;20037;-74
2022/04/17 06:25:25;;;;;;;5.25;3.13;;;22.50;36.90;;;;;;4990571;28;20091;-76
2022/04/17 06:27:52;;;;;;;3.55;2.70;;;22.90;36.30;;;;;;4973269;28;20363;-76
2022/04/17 06:30:21;;;;;;;6.18;2.97;;;22.80;36.10;;;;;;4976940;28;20068;-74
2022/04/17 06:32:50;;;;;;;4.82;2.95;;;23.20;36.00;;;;;;4975151;28;20062;-73
2022/04/17 06:35:16;;;;;;;5.10;3.10;;;23.40;35.20;;;;;;4975634;28;20088;-74
2022/04/17 06:37:48;;;;;;;3.67;2.50;;;23.10;35.10;;;;;;4985662;28;20129;-75
2022/04/17 06:40:16;;;;;;;3.05;2.28;;;23.10;35.10;;;;;;4995948;28;20026;-75
2022/04/17 06:42:42;;;;;;;3.90;2.90;;;23.10;34.60;;;;;;4971327;28;20026;-74
2022/04/17 06:45:09;;;;;;;4.95;2.95;;;23.10;34.60;;;;;;4990547;28;20057;-73
2022/04/17 06:47:34;;;;;;;3.13;2.40;;;23.00;34.70;;;;;;4991487;28;20056;-73
2022/04/17 06:50:00;;;;;;;;;;;23.40;34.10;;;;;;4994689;28;20053;-74
2022/04/17 06:52:25;;;;;;;2.75;2.45;;;23.50;34.20;;;;;;4985566;28;19952;-73
2022/04/17 06:54:51;;;;;;;4.18;2.55;;;23.80;34.10;;;;;;4978364;28;20140;-73
2022/04/17 06:57:17;;;;;;;2.95;2.40;;;24.30;33.10;;;;;;4973935;28;20029;-74
2022/04/17 06:59:43;;;;;;;3.75;2.13;;;24.50;32.40;;;;;;4991250;28;20022;-74
2022/04/17 07:02:10;;;;;;;3.03;2.35;;;24.80;32.50;;;;;;4995685;28;20097;-74
2022/04/17 07:04:35;;;;;;;3.38;2.40;;;24.80;32.00;;;;;;4989390;28;20030;-74
2022/04/17 07:07:01;;;;;;;2.75;2.40;;;25.00;31.70;;;;;;4981040;28;20109;-74
2022/04/17 07:09:27;;;;;;;3.92;2.40;;;25.30;32.00;;;;;;4988323;28;20025;-74
2022/04/17 07:11:54;;;;;;;3.10;2.08;;;25.60;31.20;;;;;;4985940;28;20042;-73
2022/04/17 07:14:21;;;;;;;4.10;2.45;;;25.80;31.10;;;;;;4975511;28;20111;-73
2022/04/17 07:16:47;;;;;;;3.30;2.22;;;25.80;31.20;;;;;;4995870;28;20030;-73
2022/04/17 07:19:15;;;;;;;4.10;2.38;;;25.40;30.80;;;;;;4993087;28;20088;-73
2022/04/17 07:21:41;;;;;;;3.55;2.13;;;25.40;30.70;;;;;;4988231;28;20049;-74
2022/04/17 07:24:07;;;;;;;4.43;2.20;;;25.10;30.80;;;;;;4978996;28;20612;-73
2022/04/17 07:26:33;;;;;;;2.50;2.30;;;24.90;31.30;;;;;;4976092;28;20025;-74
2022/04/17 07:28:59;;;;;;;4.78;2.28;;;25.10;31.10;;;;;;4997137;28;20884;-73
2022/04/17 07:31:25;;;;;;;2.97;2.35;;;25.40;30.70;;;;;;4996237;28;20042;-73
2022/04/17 07:33:51;;;;;;;3.50;2.30;;;25.30;30.30;;;;;;4996075;28;20030;-73
2022/04/17 07:36:20;;;;;;;2.17;1.92;;;25.50;30.50;;;;;;4982506;28;20100;-73
2022/04/17 07:38:47;;;;;;;2.00;1.80;;;25.60;31.20;;;;;;4980222;28;20347;-73
2022/04/17 07:41:12;;;;;;;2.25;1.75;;;25.80;30.30;;;;;;4998823;28;20096;-73
2022/04/17 07:43:38;;;;;;;3.42;2.40;;;25.80;30.30;;;;;;4992059;28;20510;-73
2022/04/17 07:46:06;;;;;;;2.85;2.33;;;25.80;30.10;;;;;;5000402;28;20021;-73
2022/04/17 07:48:31;;;;;;;2.75;1.83;;;25.90;30.00;;;;;;4990786;28;20030;-73
2022/04/17 07:50:57;;;;;;;2.33;1.83;;;26.20;30.00;;;;;;4998468;28;20025;-74
2022/04/17 07:53:22;;;;;;;2.35;1.77;;;26.40;29.80;;;;;;4995981;28;20027;-74
2022/04/17 07:55:50;;;;;;;3.42;2.03;;;25.60;29.70;;;;;;4984379;28;20676;-73
2022/04/17 07:58:24;;;;;;;1.98;1.80;;;25.50;30.70;;;;;;5000117;28;20757;-73
2022/04/17 08:00:59;;;;;;;2.65;1.83;;;25.60;29.80;;;;;;4994966;28;20161;-73
2022/04/17 08:05:58;;;;;;;4.47;2.33;;;24.90;31.00;;;;;;4997037;28;20041;-74
2022/04/17 08:08:23;;;;;;;3.08;2.40;;;24.90;30.60;;;;;;4989985;28;20042;-73
2022/04/17 08:10:49;;;;;;;5.18;2.47;;;25.00;31.40;;;;;;4980043;28;20032;-73
2022/04/17 08:13:16;;;;;;;3.22;2.47;;;25.30;30.90;;;;;;4990596;28;20033;-73
2022/04/17 08:15:44;;;;;;;4.63;2.45;;;25.30;30.70;;;;;;4975340;28;20775;-73
2022/04/17 08:18:10;;;;;;;3.13;2.30;;;24.60;30.40;;;;;;4999707;28;20021;-74
2022/04/17 08:20:36;;;;;;;3.60;2.58;;;23.90;31.50;;;;;;4994952;28;20072;-75
2022/04/17 08:23:03;;;;;;;4.68;3.63;;;23.00;32.30;;;;;;4970280;28;20029;-75
2022/04/17 08:25:28;;;;;;;2.42;2.10;;;22.50;33.50;;;;;;4975230;28;20057;-76
2022/04/17 08:27:56;;;;;;;2.45;1.90;;;21.90;32.40;;;;;;4979250;28;20484;-75
2022/04/17 08:30:25;;;;;;;2.05;1.80;;;21.80;32.10;;;;;;4982727;28;20029;-75
2022/04/17 08:32:58;;;;;;;2.97;1.77;;;22.40;31.80;;;;;;4999823;28;20017;-74
2022/04/17 08:35:23;;;;;;;3.40;1.90;;;22.60;32.10;;;;;;4984308;28;20034;-74
2022/04/17 08:37:50;;;;;;;3.92;2.20;;;23.00;30.80;;;;;;4989895;28;20028;-74
2022/04/17 08:40:16;;;;;;;2.25;1.55;;;23.70;30.20;;;;;;4978720;28;20033;-74
2022/04/17 08:42:44;;;;;;;2.72;1.80;;;24.30;30.10;;;;;;4994349;28;20018;-74
2022/04/17 08:45:13;;;;;;;3.80;1.90;;;24.70;29.80;;;;;;4998315;28;20025;-74
2022/04/17 08:47:40;;;;;;;2.70;1.55;;;24.50;29.80;;;;;;4977402;28;20507;-74
2022/04/17 08:50:14;;;;;;;2.13;1.73;;;24.70;29.00;;;;;;4976502;28;20025;-74
2022/04/17 08:52:45;;;;;;;2.20;1.70;;;24.80;29.20;;;;;;4968570;28;20025;-74
2022/04/17 08:55:11;;;;;;;1.95;1.63;;;24.60;29.50;;;;;;4995825;28;20029;-74
2022/04/17 08:57:37;;;;;;;2.35;1.75;;;24.70;29.00;;;;;;4990766;28;20472;-75
2022/04/17 09:00:08;;;;;;;2.58;1.60;;;23.60;29.60;;;;;;4992489;28;20019;-74
2022/04/17 09:02:35;;;;;;;2.03;1.55;;;23.70;29.60;;;;;;4978924;28;20030;-73
2022/04/17 09:05:08;;;;;;;5.63;1.50;;;24.10;29.60;;;;;;4988223;28;20479;-73
2022/04/17 09:07:53;;;;;;;2.30;1.40;;;24.40;29.70;;;;;;4984029;28;20854;-73
2022/04/17 09:10:29;;;;;;;1.92;1.77;;;24.80;28.30;;;;;;4974194;28;20518;-75
2022/04/17 09:12:56;;;;;;;2.03;1.58;;;24.10;28.40;;;;;;4992694;28;20737;-73
2022/04/17 09:15:28;;;;;;;2.85;1.45;;;24.10;28.50;;;;;;4994760;28;20036;-73
2022/04/17 09:17:54;;;;;;;2.60;1.60;;;23.90;28.90;;;;;;4995406;28;20030;-73
2022/04/17 09:20:22;;;;;;;1.88;1.63;;;23.80;28.80;;;;;;4988664;28;20033;-73
2022/04/17 09:22:54;;;;;;;2.38;1.60;;;24.10;28.90;;;;;;4972758;28;20513;-73
2022/04/17 09:25:27;;;;;;;2.13;1.70;;;24.50;28.50;;;;;;4996279;28;20537;-73
2022/04/17 09:28:04;;;;;;;2.50;1.40;;;25.00;27.90;;;;;;4996835;28;20092;-73
2022/04/17 09:30:50;;;;;;;1.67;1.33;;;24.70;27.50;;;;;;4986722;28;20052;-73
2022/04/17 09:33:18;;;;;;;3.00;1.48;;;24.70;28.00;;;;;;4990200;28;20604;-73
2022/04/17 09:35:53;;;;;;;2.28;1.73;;;25.00;27.90;;;;;;4993358;28;20768;-73
2022/04/17 09:38:23;;;;;;;2.35;1.65;;;25.40;28.00;;;;;;4981776;28;20068;-73
2022/04/17 09:40:49;;;;;;;2.03;1.80;;;25.10;27.50;;;;;;4984892;28;20030;-73
2022/04/17 09:43:18;;;;;;;1.95;1.70;;;24.50;27.80;;;;;;4981182;28;20258;-73
2022/04/17 09:46:03;;;;;;;4.18;1.48;;;24.50;28.50;;;;;;4992245;28;20714;-72
2022/04/17 09:48:34;;;;;;;1.40;1.30;;;24.00;28.50;;;;;;4991596;28;20017;-72
2022/04/17 09:51:01;;;;;;;2.45;1.48;;;23.90;29.00;;;;;;4989306;28;20034;-72
2022/04/17 09:53:35;;;;;;;2.80;1.60;;;24.40;28.50;;;;;;4986798;28;20022;-72
2022/04/17 09:56:10;;;;;;;1.40;1.30;;;23.40;28.00;;;;;;4994628;28;20054;-72
2022/04/17 09:58:45;;;;;;;1.88;1.20;;;23.50;28.40;;;;;;4971890;28;20030;-72
2022/04/17 10:01:16;;;;;;;1.73;1.30;;;23.80;27.80;;;;;;4992759;28;20040;-72
2022/04/17 10:03:42;;;;;;;1.95;1.40;;;24.20;27.80;;;;;;4989461;28;20018;-75
2022/04/17 10:06:11;;;;;;;1.58;1.27;;;24.50;27.80;;;;;;4995895;28;20037;-75
2022/04/17 10:08:38;;;;;;;1.88;1.58;;;24.40;28.00;;;;;;4989123;28;20036;-72
2022/04/17 10:11:04;;;;;;;2.30;1.67;;;24.20;28.10;;;;;;4990855;28;20018;-72
2022/04/17 10:13:32;;;;;;;4.55;1.80;;;23.90;28.50;;;;;;4989394;28;20064;-74
2022/04/17 10:15:59;;;;;;;2.97;1.98;;;23.80;28.40;;;;;;4981913;28;20019;-73
2022/04/17 10:18:32;;;;;;;3.88;1.80;;;23.70;28.80;;;;;;4975941;28;20030;-73
2022/04/17 10:21:09;;;;;;;2.90;1.63;;;23.80;28.80;;;;;;5094058;27;20416;-74
2022/04/17 10:23:43;;;;;;;2.00;1.80;;;24.10;28.30;;;;;;5088215;28;20026;-72
2022/04/17 10:26:13;;;;;;;3.63;1.92;;;23.50;29.00;;;;;;5093886;28;20024;-73
2022/04/17 10:28:46;;;;;;;3.85;2.28;;;23.40;30.00;;;;;;5090513;28;20498;-74
2022/04/17 10:31:17;;;;;;;1.90;1.70;;;22.60;29.40;;;;;;5091206;28;20024;-74
2022/04/17 10:34:06;;;;;;;3.13;1.75;;;22.70;30.20;;;;;;5089009;28;20020;-74
2022/04/17 10:36:53;;;;;;;2.13;1.80;;;22.80;29.60;;;;;;5090069;28;20015;-75
2022/04/17 10:39:48;;;;;;;2.47;1.77;;;22.50;29.70;;;;;;5092711;28;20047;-73
2022/04/17 10:42:14;;;;;;;2.67;1.70;;;21.90;29.60;;;;;;5086354;28;20085;-74
2022/04/17 10:44:45;;;;;;;;;;;22.00;30.00;;;;;;5088879;28;20012;-74
2022/04/17 10:47:20;;;;;;;2.03;1.58;;;22.30;30.20;;;;;;5072069;28;19904;-74
2022/04/17 10:50:00;;;;;;;1.95;1.60;;;22.30;30.00;;;;;;5066176;28;20902;-74
2022/04/17 10:52:31;;;;;;;2.10;1.70;;;22.40;30.70;;;;;;5071707;28;20051;-74
2022/04/17 10:55:09;;;;;;;2.10;1.88;;;22.00;30.00;;;;;;5073195;28;20020;-74
2022/04/17 10:57:49;;;;;;;2.03;1.70;;;22.00;30.40;;;;;;5066943;28;20017;-74
2022/04/17 11:00:26;;;;;;;2.35;1.60;;;21.70;31.20;;;;;;5070019;28;20493;-74
2022/04/17 11:02:53;;;;;;;1.98;1.42;;;21.20;30.00;;;;;;5072164;28;21459;-73
2022/04/17 11:08:27;;;;;;;1.60;1.50;;;19.80;29.30;;;;;;5074204;28;20117;-73
2022/04/17 11:11:02;;;;;;;2.88;1.23;;;19.00;30.30;;;;;;5071279;28;20070;-73
2022/04/17 11:13:27;;;;;;;2.25;1.50;;;18.90;31.30;;;;;;5070532;28;20020;-72
2022/04/17 11:15:58;;;;;;;2.45;1.83;;;18.60;31.00;;;;;;5072010;28;20520;-72
2022/04/17 11:18:28;;;;;;;1.35;1.25;;;18.10;31.60;;;;;;5072898;28;20119;-72
2022/04/17 11:20:58;;;;;;;5.35;1.83;;;17.90;32.60;;;;;;5072160;28;20428;-71
2022/04/17 11:23:48;;;;;;;6.63;1.63;;;17.50;32.90;;;;;;5072146;28;20063;-72
2022/04/17 11:26:14;;;;;;;3.15;1.30;;;17.40;33.20;;;;;;5072490;28;20418;-72
2022/04/17 11:28:42;;;;;;;3.03;1.40;;;17.50;32.90;;;;;;5067901;28;20469;-73
2022/04/17 11:31:08;;;;;;;5.85;1.70;;;17.50;32.40;;;;;;5064373;28;20101;-73
2022/04/17 11:33:34;;;;;;;2.20;1.43;;;17.30;33.70;;;;;;5053031;28;20481;-73
2022/04/17 11:36:00;;;;;;;1.80;1.55;;;16.90;33.40;;;;;;5059792;28;20035;-73
2022/04/17 11:38:26;;;;;;;1.77;1.67;;;17.00;33.70;;;;;;5058437;28;20032;-73
2022/04/17 11:40:53;;;;;;;2.72;1.50;;;16.80;34.50;;;;;;5055293;28;20824;-73
2022/04/17 11:43:19;;;;;;;2.90;1.67;;;16.40;34.10;;;;;;5059102;28;20020;-72
2022/04/17 11:45:47;;;;;;;2.13;1.40;;;16.20;33.80;;;;;;5055911;28;20083;-73
2022/04/17 11:48:17;;;;;;;2.83;1.45;;;16.10;34.70;;;;;;5060071;28;20020;-72
2022/04/17 11:50:43;;;;;;;2.47;1.50;;;16.10;35.40;;;;;;5054009;28;20055;-72
2022/04/17 11:53:12;;;;;;;3.38;1.55;;;16.20;35.60;;;;;;5059342;28;20108;-72
2022/04/17 11:55:45;;;;;;;1.63;1.30;;;16.00;35.20;;;;;;5053923;28;20400;-73
2022/04/17 11:58:31;;;;;;;2.25;1.42;;;15.90;35.20;;;;;;5060312;28;20065;-72
2022/04/17 12:01:03;;;;;;;2.28;1.70;;;15.70;35.20;;;;;;5055198;28;20078;-72
2022/04/17 12:03:46;;;;;;;3.90;1.55;;;15.60;35.20;;;;;;5057827;28;20013;-72
2022/04/17 12:06:11;;;;;;;2.28;1.58;;;15.50;35.80;;;;;;5057997;28;20505;-73
2022/04/17 12:08:40;;;;;;;2.77;1.63;;;15.40;35.60;;;;;;5054206;28;20027;-74
2022/04/17 12:11:08;;;;;;;4.25;1.58;;;15.30;36.20;;;;;;5058523;28;20008;-73
2022/04/17 12:13:34;;;;;;;2.33;1.90;;;15.60;35.90;;;;;;5052896;28;20422;-73
2022/04/17 12:16:05;;;;;;;1.88;1.45;;;15.80;35.90;;;;;;5058521;28;20012;-73
2022/04/17 12:18:32;;;;;;;1.85;1.63;;;15.70;36.20;;;;;;5058340;28;20021;-73
2022/04/17 12:21:06;;;;;;;3.10;2.17;;;15.70;36.20;;;;;;5056362;28;20032;-73
2022/04/17 12:23:32;;;;;;;1.67;1.40;;;15.70;36.00;;;;;;5055787;28;20025;-73
2022/04/17 12:25:59;;;;;;;4.05;2.17;;;15.80;36.00;;;;;;5057918;28;20041;-72
2022/04/17 12:28:26;;;;;;;2.08;1.27;;;15.70;35.80;;;;;;5074928;28;20079;-73
2022/04/17 12:30:52;;;;;;;2.42;1.77;;;15.60;36.20;;;;;;5053855;28;20323;-73
2022/04/17 12:33:27;;;;;;;3.05;1.83;;;15.50;36.10;;;;;;5058282;28;20099;-73
2022/04/17 12:36:04;;;;;;;1.50;1.40;;;15.50;36.90;;;;;;5055612;28;20029;-73
2022/04/17 12:38:30;;;;;;;2.15;1.50;;;15.70;36.60;;;;;;5058811;28;20591;-72
2022/04/17 12:40:57;;;;;;;3.47;1.40;;;15.90;36.30;;;;;;5054019;28;20032;-73
2022/04/17 12:43:30;;;;;;;1.85;1.58;;;15.50;35.10;;;;;;5057447;28;20025;-73
2022/04/17 12:46:04;;;;;;;5.57;2.08;;;15.50;37.10;;;;;;5053085;28;20373;-72
2022/04/17 12:48:35;;;;;;;3.15;1.60;;;15.50;36.60;;;;;;5058051;28;20028;-73
2022/04/17 12:51:11;;;;;;;3.65;1.60;;;15.50;35.90;;;;;;5054042;28;20024;-73
2022/04/17 12:53:43;;;;;;;5.10;1.35;;;15.50;36.40;;;;;;5054458;28;20412;-77
2022/04/17 12:56:11;;;;;;;2.08;1.50;;;15.50;37.00;;;;;;5058918;28;20027;-73
2022/04/17 12:58:58;;;;;;;3.05;1.73;;;15.40;36.60;;;;;;5054816;28;20035;-74
2022/04/17 13:01:26;;;;;;;;;;;15.30;36.60;;;;;;5058104;28;20043;-73
2022/04/17 13:04:23;;;;;;;4.28;2.08;;;15.10;36.70;;;;;;5053455;28;19908;-73
2022/04/17 13:07:07;;;;;;;1.70;1.60;;;15.00;37.10;;;;;;5068134;28;20025;-73
2022/04/17 13:09:33;;;;;;;2.65;1.65;;;15.00;37.40;;;;;;5051926;28;20659;-73
2022/04/17 13:12:00;;;;;;;3.80;1.60;;;15.00;37.30;;;;;;5056830;28;20024;-72
2022/04/17 13:14:25;;;;;;;;;;;14.90;36.70;;;;;;5057448;28;20029;-72
2022/04/17 13:17:00;;;;;;;1.77;1.38;;;14.90;36.70;;;;;;5053507;28;19915;-73
2022/04/17 13:19:30;;;;;;;1.50;1.30;;;15.00;36.70;;;;;;5057036;28;20613;-73
2022/04/17 13:21:58;;;;;;;1.80;1.70;;;15.00;36.70;;;;;;5052969;28;20111;-73